sensor_id;sensor_type;location;lat;lon;timestamp;temperature;humidity
9768;DHT22;4923;52.520;13.494;2023-07-13T00:00:20;19.00;99.90
9768;DHT22;4923;52.520;13.494;2023-07-13T00:03:08;19.00;99.90
9768;DHT22;4923;52.520;13.494;2023-07-13T00:05:59;19.10;99.90
9768;DHT22;4923;52.520;13.494;2023-07-13T00:08:46;19.10;99.90
9768;DHT22;4923;52.520;13.494;2023-07-13T00:11:34;19.20;99.90
9768;DHT22;4923;52.520;13.494;2023-07-13T00:14:23;19.20;99.90
9768;DHT22;4923;52.520;13.494;2023-07-13T00:17:10;19.10;99.90
9768;DHT22;4923;52.520;13.494;2023-07-13T00:19:57;19.10;99.90
9768;DHT22;4923;52.520;13.494;2023-07-13T00:22:44;19.00;99.90
9768;DHT22;4923;52.520;13.494;2023-07-13T00:25:30;18.90;99.90
9768;DHT22;4923;52.520;13.494;2023-07-13T00:28:17;18.90;99.90
9768;DHT22;4923;52.520;13.494;2023-07-13T00:31:06;18.80;99.90
9768;DHT22;4923;52.520;13.494;2023-07-13T00:33:53;18.70;99.90
9768;DHT22;4923;52.520;13.494;2023-07-13T00:36:40;18.70;99.90
9768;DHT22;4923;52.520;13.494;2023-07-13T00:39:27;18.60;99.90
9768;DHT22;4923;52.520;13.494;2023-07-13T00:42:14;18.60;99.90
9768;DHT22;4923;52.520;13.494;2023-07-13T00:45:07;18.60;99.90
9768;DHT22;4923;52.520;13.494;2023-07-13T00:47:56;18.40;99.90
9768;DHT22;4923;52.520;13.494;2023-07-13T00:50:45;18.30;99.90
9768;DHT22;4923;52.520;13.494;2023-07-13T00:53:33;18.20;99.90
9768;DHT22;4923;52.520;13.494;2023-07-13T00:56:21;18.10;99.90
9768;DHT22;4923;52.520;13.494;2023-07-13T00:59:09;17.90;99.90
9768;DHT22;4923;52.520;13.494;2023-07-13T01:01:57;17.80;99.90
9768;DHT22;4923;52.520;13.494;2023-07-13T01:04:45;17.80;99.90
9768;DHT22;4923;52.520;13.494;2023-07-13T01:07:32;17.70;99.90
9768;DHT22;4923;52.520;13.494;2023-07-13T01:10:21;17.60;99.90
9768;DHT22;4923;52.520;13.494;2023-07-13T01:13:10;17.50;99.90
9768;DHT22;4923;52.520;13.494;2023-07-13T01:15:58;17.40;99.90
9768;DHT22;4923;52.520;13.494;2023-07-13T01:18:48;17.30;99.90
9768;DHT22;4923;52.520;13.494;2023-07-13T01:21:36;17.30;99.90
9768;DHT22;4923;52.520;13.494;2023-07-13T01:24:23;17.20;99.90
9768;DHT22;4923;52.520;13.494;2023-07-13T01:27:13;17.10;99.90
9768;DHT22;4923;52.520;13.494;2023-07-13T01:30:00;17.10;99.90
9768;DHT22;4923;52.520;13.494;2023-07-13T01:32:49;17.00;99.90
9768;DHT22;4923;52.520;13.494;2023-07-13T01:35:36;17.00;99.90
9768;DHT22;4923;52.520;13.494;2023-07-13T01:38:25;16.90;99.90
9768;DHT22;4923;52.520;13.494;2023-07-13T01:41:12;16.80;99.90
9768;DHT22;4923;52.520;13.494;2023-07-13T01:43:59;16.70;99.90
9768;DHT22;4923;52.520;13.494;2023-07-13T01:46:46;16.70;99.90
9768;DHT22;4923;52.520;13.494;2023-07-13T01:49:33;16.70;99.90
9768;DHT22;4923;52.520;13.494;2023-07-13T01:52:19;16.60;99.90
9768;DHT22;4923;52.520;13.494;2023-07-13T01:55:08;16.60;99.90
9768;DHT22;4923;52.520;13.494;2023-07-13T01:57:55;16.50;99.90
9768;DHT22;4923;52.520;13.494;2023-07-13T02:00:42;16.50;99.90
9768;DHT22;4923;52.520;13.494;2023-07-13T02:03:29;16.60;99.90
9768;DHT22;4923;52.520;13.494;2023-07-13T02:06:16;16.60;99.90
9768;DHT22;4923;52.520;13.494;2023-07-13T02:09:03;16.60;99.90
9768;DHT22;4923;52.520;13.494;2023-07-13T02:11:51;16.60;99.90
9768;DHT22;4923;52.520;13.494;2023-07-13T02:14:38;16.50;99.90
9768;DHT22;4923;52.520;13.494;2023-07-13T02:17:25;16.50;99.90
9768;DHT22;4923;52.520;13.494;2023-07-13T02:20:12;16.40;99.90
9768;DHT22;4923;52.520;13.494;2023-07-13T02:22:59;16.40;99.90
9768;DHT22;4923;52.520;13.494;2023-07-13T02:25:46;16.40;99.90
9768;DHT22;4923;52.520;13.494;2023-07-13T02:28:34;16.40;99.90
9768;DHT22;4923;52.520;13.494;2023-07-13T02:31:21;16.40;99.90
9768;DHT22;4923;52.520;13.494;2023-07-13T02:34:08;16.40;99.90
9768;DHT22;4923;52.520;13.494;2023-07-13T02:36:55;16.40;99.90
9768;DHT22;4923;52.520;13.494;2023-07-13T02:39:42;16.30;99.90
9768;DHT22;4923;52.520;13.494;2023-07-13T02:42:29;16.30;99.90
9768;DHT22;4923;52.520;13.494;2023-07-13T02:45:17;16.30;99.90
9768;DHT22;4923;52.520;13.494;2023-07-13T02:48:04;16.20;99.90
9768;DHT22;4923;52.520;13.494;2023-07-13T02:50:51;16.20;99.90
9768;DHT22;4923;52.520;13.494;2023-07-13T02:53:38;16.20;99.90
9768;DHT22;4923;52.520;13.494;2023-07-13T02:56:27;16.30;99.90
9768;DHT22;4923;52.520;13.494;2023-07-13T02:59:14;16.30;99.90
9768;DHT22;4923;52.520;13.494;2023-07-13T03:02:03;16.30;99.90
9768;DHT22;4923;52.520;13.494;2023-07-13T03:04:50;16.30;99.90
9768;DHT22;4923;52.520;13.494;2023-07-13T03:07:36;16.30;99.90
9768;DHT22;4923;52.520;13.494;2023-07-13T03:10:23;16.30;99.90
9768;DHT22;4923;52.520;13.494;2023-07-13T03:13:10;16.30;99.90
9768;DHT22;4923;52.520;13.494;2023-07-13T03:15:57;16.30;99.90
9768;DHT22;4923;52.520;13.494;2023-07-13T03:18:46;16.30;99.90
9768;DHT22;4923;52.520;13.494;2023-07-13T03:21:33;16.30;99.90
9768;DHT22;4923;52.520;13.494;2023-07-13T03:24:20;16.30;99.90
9768;DHT22;4923;52.520;13.494;2023-07-13T03:27:11;16.50;99.90
9768;DHT22;4923;52.520;13.494;2023-07-13T03:29:58;16.60;99.90
9768;DHT22;4923;52.520;13.494;2023-07-13T03:32:45;16.70;99.90
9768;DHT22;4923;52.520;13.494;2023-07-13T03:35:34;16.80;99.90
9768;DHT22;4923;52.520;13.494;2023-07-13T03:38:21;16.80;99.90
9768;DHT22;4923;52.520;13.494;2023-07-13T03:41:07;16.90;99.90
9768;DHT22;4923;52.520;13.494;2023-07-13T03:43:54;17.00;99.90
9768;DHT22;4923;52.520;13.494;2023-07-13T03:46:41;17.20;99.90
9768;DHT22;4923;52.520;13.494;2023-07-13T03:49:28;17.40;99.90
9768;DHT22;4923;52.520;13.494;2023-07-13T03:52:16;17.50;99.90
9768;DHT22;4923;52.520;13.494;2023-07-13T03:55:03;17.80;99.90
9768;DHT22;4923;52.520;13.494;2023-07-13T03:57:57;18.00;99.90
9768;DHT22;4923;52.520;13.494;2023-07-13T04:00:44;18.30;99.90
9768;DHT22;4923;52.520;13.494;2023-07-13T04:03:31;18.70;99.90
9768;DHT22;4923;52.520;13.494;2023-07-13T04:06:20;19.10;99.90
9768;DHT22;4923;52.520;13.494;2023-07-13T04:09:09;19.50;99.90
9768;DHT22;4923;52.520;13.494;2023-07-13T04:11:56;19.90;99.90
9768;DHT22;4923;52.520;13.494;2023-07-13T04:14:43;20.30;99.90
9768;DHT22;4923;52.520;13.494;2023-07-13T04:17:30;20.40;99.90
9768;DHT22;4923;52.520;13.494;2023-07-13T04:20:17;20.60;99.90
9768;DHT22;4923;52.520;13.494;2023-07-13T04:23:06;20.90;99.90
9768;DHT22;4923;52.520;13.494;2023-07-13T04:25:54;21.00;99.90
9768;DHT22;4923;52.520;13.494;2023-07-13T04:28:41;21.20;99.90
9768;DHT22;4923;52.520;13.494;2023-07-13T04:31:28;21.30;99.90
9768;DHT22;4923;52.520;13.494;2023-07-13T04:34:15;21.70;99.90
9768;DHT22;4923;52.520;13.494;2023-07-13T04:37:03;22.10;99.90
9768;DHT22;4923;52.520;13.494;2023-07-13T04:39:50;22.10;99.90
9768;DHT22;4923;52.520;13.494;2023-07-13T04:42:38;21.90;99.90
9768;DHT22;4923;52.520;13.494;2023-07-13T04:45:25;22.10;99.90
9768;DHT22;4923;52.520;13.494;2023-07-13T04:48:12;22.10;99.90
9768;DHT22;4923;52.520;13.494;2023-07-13T04:50:59;22.10;99.90
9768;DHT22;4923;52.520;13.494;2023-07-13T04:53:47;22.10;99.90
9768;DHT22;4923;52.520;13.494;2023-07-13T04:56:34;22.20;99.90
9768;DHT22;4923;52.520;13.494;2023-07-13T04:59:22;22.40;99.90
9768;DHT22;4923;52.520;13.494;2023-07-13T05:02:10;22.30;99.90
9768;DHT22;4923;52.520;13.494;2023-07-13T05:04:57;22.40;99.90
9768;DHT22;4923;52.520;13.494;2023-07-13T05:07:44;22.40;99.90
9768;DHT22;4923;52.520;13.494;2023-07-13T05:10:31;22.60;99.90
9768;DHT22;4923;52.520;13.494;2023-07-13T05:13:18;22.30;99.90
9768;DHT22;4923;52.520;13.494;2023-07-13T05:16:06;22.50;99.90
9768;DHT22;4923;52.520;13.494;2023-07-13T05:18:53;22.40;99.90
9768;DHT22;4923;52.520;13.494;2023-07-13T05:21:40;22.70;99.90
9768;DHT22;4923;52.520;13.494;2023-07-13T05:24:27;22.80;99.90
9768;DHT22;4923;52.520;13.494;2023-07-13T05:27:14;22.90;99.90
9768;DHT22;4923;52.520;13.494;2023-07-13T05:30:01;23.20;99.90
9768;DHT22;4923;52.520;13.494;2023-07-13T05:32:49;23.40;99.90
9768;DHT22;4923;52.520;13.494;2023-07-13T05:35:36;23.30;99.90
9768;DHT22;4923;52.520;13.494;2023-07-13T05:38:23;22.90;99.90
9768;DHT22;4923;52.520;13.494;2023-07-13T05:41:10;22.90;99.90
9768;DHT22;4923;52.520;13.494;2023-07-13T05:43:57;22.40;99.90
9768;DHT22;4923;52.520;13.494;2023-07-13T05:46:44;22.50;99.90
9768;DHT22;4923;52.520;13.494;2023-07-13T05:49:32;22.50;99.90
9768;DHT22;4923;52.520;13.494;2023-07-13T05:52:19;22.50;99.90
9768;DHT22;4923;52.520;13.494;2023-07-13T05:55:06;22.40;99.90
9768;DHT22;4923;52.520;13.494;2023-07-13T05:57:53;22.10;99.90
9768;DHT22;4923;52.520;13.494;2023-07-13T06:00:40;22.00;99.90
9768;DHT22;4923;52.520;13.494;2023-07-13T06:03:27;22.10;99.90
9768;DHT22;4923;52.520;13.494;2023-07-13T06:06:16;21.80;99.90
9768;DHT22;4923;52.520;13.494;2023-07-13T06:09:03;21.70;99.90
9768;DHT22;4923;52.520;13.494;2023-07-13T06:11:50;21.60;99.90
9768;DHT22;4923;52.520;13.494;2023-07-13T06:14:36;21.40;99.90
9768;DHT22;4923;52.520;13.494;2023-07-13T06:17:23;21.40;99.90
9768;DHT22;4923;52.520;13.494;2023-07-13T06:20:10;21.50;99.90
9768;DHT22;4923;52.520;13.494;2023-07-13T06:22:59;21.50;99.90
9768;DHT22;4923;52.520;13.494;2023-07-13T06:25:45;21.60;99.90
9768;DHT22;4923;52.520;13.494;2023-07-13T06:28:33;21.60;99.90
9768;DHT22;4923;52.520;13.494;2023-07-13T06:31:20;21.80;99.90
9768;DHT22;4923;52.520;13.494;2023-07-13T06:34:07;21.90;99.90
9768;DHT22;4923;52.520;13.494;2023-07-13T06:36:54;21.90;99.90
9768;DHT22;4923;52.520;13.494;2023-07-13T06:39:42;22.00;99.90
9768;DHT22;4923;52.520;13.494;2023-07-13T06:42:29;21.80;99.90
9768;DHT22;4923;52.520;13.494;2023-07-13T06:45:16;21.80;99.90
9768;DHT22;4923;52.520;13.494;2023-07-13T06:48:03;21.70;99.90
9768;DHT22;4923;52.520;13.494;2023-07-13T06:50:50;21.90;99.90
9768;DHT22;4923;52.520;13.494;2023-07-13T06:53:38;22.00;99.90
9768;DHT22;4923;52.520;13.494;2023-07-13T06:56:26;21.90;99.90
9768;DHT22;4923;52.520;13.494;2023-07-13T06:59:13;21.70;99.90
9768;DHT22;4923;52.520;13.494;2023-07-13T07:02:00;21.90;99.90
9768;DHT22;4923;52.520;13.494;2023-07-13T07:04:47;22.10;99.90
9768;DHT22;4923;52.520;13.494;2023-07-13T07:07:34;22.10;99.90
9768;DHT22;4923;52.520;13.494;2023-07-13T07:10:21;21.90;99.90
9768;DHT22;4923;52.520;13.494;2023-07-13T07:13:09;22.30;99.90
9768;DHT22;4923;52.520;13.494;2023-07-13T07:15:56;22.50;99.90
9768;DHT22;4923;52.520;13.494;2023-07-13T07:18:43;22.70;99.90
9768;DHT22;4923;52.520;13.494;2023-07-13T07:21:29;22.70;99.90
9768;DHT22;4923;52.520;13.494;2023-07-13T07:24:16;22.90;99.90
9768;DHT22;4923;52.520;13.494;2023-07-13T07:27:04;22.70;99.90
9768;DHT22;4923;52.520;13.494;2023-07-13T07:29:52;22.80;99.90
9768;DHT22;4923;52.520;13.494;2023-07-13T07:32:39;22.60;99.90
9768;DHT22;4923;52.520;13.494;2023-07-13T07:35:27;22.70;99.90
9768;DHT22;4923;52.520;13.494;2023-07-13T07:38:14;22.90;99.90
9768;DHT22;4923;52.520;13.494;2023-07-13T07:41:03;23.00;99.90
9768;DHT22;4923;52.520;13.494;2023-07-13T07:43:50;23.40;99.90
9768;DHT22;4923;52.520;13.494;2023-07-13T07:46:39;23.40;99.90
9768;DHT22;4923;52.520;13.494;2023-07-13T07:49:27;23.30;99.90
9768;DHT22;4923;52.520;13.494;2023-07-13T07:52:14;23.20;99.90
9768;DHT22;4923;52.520;13.494;2023-07-13T07:55:00;23.20;99.90
9768;DHT22;4923;52.520;13.494;2023-07-13T07:57:47;23.40;99.90
9768;DHT22;4923;52.520;13.494;2023-07-13T08:00:34;23.50;99.90
9768;DHT22;4923;52.520;13.494;2023-07-13T08:03:22;23.80;99.90
9768;DHT22;4923;52.520;13.494;2023-07-13T08:06:09;24.30;99.90
9768;DHT22;4923;52.520;13.494;2023-07-13T08:08:59;24.20;99.90
9768;DHT22;4923;52.520;13.494;2023-07-13T08:11:47;24.00;99.90
9768;DHT22;4923;52.520;13.494;2023-07-13T08:14:33;24.70;99.90
9768;DHT22;4923;52.520;13.494;2023-07-13T08:17:20;24.80;99.90
9768;DHT22;4923;52.520;13.494;2023-07-13T08:20:09;25.00;99.90
9768;DHT22;4923;52.520;13.494;2023-07-13T08:22:56;25.60;99.90
9768;DHT22;4923;52.520;13.494;2023-07-13T08:25:50;25.70;99.90
9768;DHT22;4923;52.520;13.494;2023-07-13T08:28:37;25.40;99.90
9768;DHT22;4923;52.520;13.494;2023-07-13T08:31:24;24.90;99.90
9768;DHT22;4923;52.520;13.494;2023-07-13T08:34:11;24.70;99.90
9768;DHT22;4923;52.520;13.494;2023-07-13T08:37:02;25.00;99.90
9768;DHT22;4923;52.520;13.494;2023-07-13T08:39:49;25.10;99.90
9768;DHT22;4923;52.520;13.494;2023-07-13T08:42:37;25.20;99.90
9768;DHT22;4923;52.520;13.494;2023-07-13T08:45:33;25.10;99.90
9768;DHT22;4923;52.520;13.494;2023-07-13T08:48:26;24.90;99.90
9768;DHT22;4923;52.520;13.494;2023-07-13T08:51:24;24.50;99.90
9768;DHT22;4923;52.520;13.494;2023-07-13T08:54:22;24.40;99.90
9768;DHT22;4923;52.520;13.494;2023-07-13T08:57:13;24.70;99.90
9768;DHT22;4923;52.520;13.494;2023-07-13T09:00:00;25.10;99.90
9768;DHT22;4923;52.520;13.494;2023-07-13T09:02:54;24.80;99.90
9768;DHT22;4923;52.520;13.494;2023-07-13T09:05:42;24.90;99.90
9768;DHT22;4923;52.520;13.494;2023-07-13T09:08:49;25.00;99.90
9768;DHT22;4923;52.520;13.494;2023-07-13T09:11:46;25.20;99.90
9768;DHT22;4923;52.520;13.494;2023-07-13T09:14:42;25.40;99.90
9768;DHT22;4923;52.520;13.494;2023-07-13T09:17:32;25.10;99.90
9768;DHT22;4923;52.520;13.494;2023-07-13T09:20:24;24.90;99.90
9768;DHT22;4923;52.520;13.494;2023-07-13T09:23:15;25.40;99.90
9768;DHT22;4923;52.520;13.494;2023-07-13T09:26:06;25.80;99.90
9768;DHT22;4923;52.520;13.494;2023-07-13T09:29:10;26.00;99.90
9768;DHT22;4923;52.520;13.494;2023-07-13T09:32:02;26.10;99.90
9768;DHT22;4923;52.520;13.494;2023-07-13T09:34:51;26.20;99.90
9768;DHT22;4923;52.520;13.494;2023-07-13T09:37:38;26.20;99.90
9768;DHT22;4923;52.520;13.494;2023-07-13T09:40:36;26.30;99.90
9768;DHT22;4923;52.520;13.494;2023-07-13T09:43:25;26.30;99.90
9768;DHT22;4923;52.520;13.494;2023-07-13T09:46:21;26.40;99.90
9768;DHT22;4923;52.520;13.494;2023-07-13T09:49:10;25.70;99.90
9768;DHT22;4923;52.520;13.494;2023-07-13T09:51:59;25.90;99.90
9768;DHT22;4923;52.520;13.494;2023-07-13T09:54:50;26.10;99.90
9768;DHT22;4923;52.520;13.494;2023-07-13T09:57:46;25.80;99.90
9768;DHT22;4923;52.520;13.494;2023-07-13T10:00:34;25.80;99.90
9768;DHT22;4923;52.520;13.494;2023-07-13T10:03:24;26.10;99.90
9768;DHT22;4923;52.520;13.494;2023-07-13T10:06:14;26.10;99.90
9768;DHT22;4923;52.520;13.494;2023-07-13T10:09:01;26.10;99.90
9768;DHT22;4923;52.520;13.494;2023-07-13T10:11:50;26.10;99.90
9768;DHT22;4923;52.520;13.494;2023-07-13T10:14:37;25.50;99.90
9768;DHT22;4923;52.520;13.494;2023-07-13T10:17:27;24.80;99.90
9768;DHT22;4923;52.520;13.494;2023-07-13T10:20:18;24.50;99.90
9768;DHT22;4923;52.520;13.494;2023-07-13T10:23:12;24.50;99.90
9768;DHT22;4923;52.520;13.494;2023-07-13T10:26:01;24.80;99.90
9768;DHT22;4923;52.520;13.494;2023-07-13T10:28:52;25.30;99.90
9768;DHT22;4923;52.520;13.494;2023-07-13T10:31:41;25.60;99.90
9768;DHT22;4923;52.520;13.494;2023-07-13T10:34:29;26.10;99.90
9768;DHT22;4923;52.520;13.494;2023-07-13T10:37:20;26.20;99.90
9768;DHT22;4923;52.520;13.494;2023-07-13T10:40:14;26.60;99.90
9768;DHT22;4923;52.520;13.494;2023-07-13T10:43:09;26.40;99.90
9768;DHT22;4923;52.520;13.494;2023-07-13T10:45:59;26.00;99.90
9768;DHT22;4923;52.520;13.494;2023-07-13T10:48:52;26.30;99.90
9768;DHT22;4923;52.520;13.494;2023-07-13T10:51:40;26.20;99.90
9768;DHT22;4923;52.520;13.494;2023-07-13T10:54:31;26.40;99.90
9768;DHT22;4923;52.520;13.494;2023-07-13T10:57:20;26.20;99.90
9768;DHT22;4923;52.520;13.494;2023-07-13T11:00:15;26.10;99.90
9768;DHT22;4923;52.520;13.494;2023-07-13T11:03:04;25.80;99.90
9768;DHT22;4923;52.520;13.494;2023-07-13T11:06:03;25.80;99.90
9768;DHT22;4923;52.520;13.494;2023-07-13T11:08:53;26.30;99.90
9768;DHT22;4923;52.520;13.494;2023-07-13T11:11:42;26.80;99.90
9768;DHT22;4923;52.520;13.494;2023-07-13T11:14:34;27.10;99.90
9768;DHT22;4923;52.520;13.494;2023-07-13T11:17:34;27.10;99.90
9768;DHT22;4923;52.520;13.494;2023-07-13T11:20:30;27.20;99.90
9768;DHT22;4923;52.520;13.494;2023-07-13T11:23:30;27.30;99.90
9768;DHT22;4923;52.520;13.494;2023-07-13T11:26:42;27.10;99.90
9768;DHT22;4923;52.520;13.494;2023-07-13T11:29:37;26.40;99.90
9768;DHT22;4923;52.520;13.494;2023-07-13T11:32:25;26.30;99.90
9768;DHT22;4923;52.520;13.494;2023-07-13T11:35:21;26.70;99.90
9768;DHT22;4923;52.520;13.494;2023-07-13T11:38:14;26.80;99.90
9768;DHT22;4923;52.520;13.494;2023-07-13T11:41:04;26.20;99.90
9768;DHT22;4923;52.520;13.494;2023-07-13T11:43:54;26.30;99.90
9768;DHT22;4923;52.520;13.494;2023-07-13T11:46:45;26.60;99.90
9768;DHT22;4923;52.520;13.494;2023-07-13T11:49:40;26.70;99.90
9768;DHT22;4923;52.520;13.494;2023-07-13T11:52:32;27.20;99.90
9768;DHT22;4923;52.520;13.494;2023-07-13T11:55:21;27.40;99.90
9768;DHT22;4923;52.520;13.494;2023-07-13T11:58:10;27.80;99.90
9768;DHT22;4923;52.520;13.494;2023-07-13T12:01:01;27.10;99.90
9768;DHT22;4923;52.520;13.494;2023-07-13T12:03:51;27.10;99.90
9768;DHT22;4923;52.520;13.494;2023-07-13T12:06:39;27.40;99.90
9768;DHT22;4923;52.520;13.494;2023-07-13T12:09:28;27.30;99.90
9768;DHT22;4923;52.520;13.494;2023-07-13T12:12:18;26.60;99.90
9768;DHT22;4923;52.520;13.494;2023-07-13T12:15:06;25.90;99.90
9768;DHT22;4923;52.520;13.494;2023-07-13T12:17:56;26.20;99.90
9768;DHT22;4923;52.520;13.494;2023-07-13T12:20:43;26.70;99.90
9768;DHT22;4923;52.520;13.494;2023-07-13T12:23:33;27.10;99.90
9768;DHT22;4923;52.520;13.494;2023-07-13T12:26:20;27.00;99.90
9768;DHT22;4923;52.520;13.494;2023-07-13T12:29:07;26.20;99.90
9768;DHT22;4923;52.520;13.494;2023-07-13T12:31:55;26.20;99.90
9768;DHT22;4923;52.520;13.494;2023-07-13T12:34:52;26.00;99.90
9768;DHT22;4923;52.520;13.494;2023-07-13T12:37:42;25.50;99.90
9768;DHT22;4923;52.520;13.494;2023-07-13T12:40:34;25.80;99.90
9768;DHT22;4923;52.520;13.494;2023-07-13T12:43:22;25.80;99.90
9768;DHT22;4923;52.520;13.494;2023-07-13T12:46:18;25.80;99.90
9768;DHT22;4923;52.520;13.494;2023-07-13T12:49:06;26.00;99.90
9768;DHT22;4923;52.520;13.494;2023-07-13T12:51:57;25.90;99.90
9768;DHT22;4923;52.520;13.494;2023-07-13T12:54:53;25.80;99.90
9768;DHT22;4923;52.520;13.494;2023-07-13T12:57:50;25.90;99.90
9768;DHT22;4923;52.520;13.494;2023-07-13T13:00:38;25.80;99.90
9768;DHT22;4923;52.520;13.494;2023-07-13T13:03:30;25.90;99.90
9768;DHT22;4923;52.520;13.494;2023-07-13T13:06:24;25.80;99.90
9768;DHT22;4923;52.520;13.494;2023-07-13T13:09:14;25.80;99.90
9768;DHT22;4923;52.520;13.494;2023-07-13T13:12:01;25.60;99.90
9768;DHT22;4923;52.520;13.494;2023-07-13T13:14:48;25.40;99.90
9768;DHT22;4923;52.520;13.494;2023-07-13T13:17:36;25.50;99.90
9768;DHT22;4923;52.520;13.494;2023-07-13T13:20:22;25.60;99.90
9768;DHT22;4923;52.520;13.494;2023-07-13T13:23:13;25.60;99.90
9768;DHT22;4923;52.520;13.494;2023-07-13T13:26:02;25.80;99.90
9768;DHT22;4923;52.520;13.494;2023-07-13T13:28:49;26.00;99.90
9768;DHT22;4923;52.520;13.494;2023-07-13T13:31:36;26.40;99.90
9768;DHT22;4923;52.520;13.494;2023-07-13T13:34:24;26.30;99.90
9768;DHT22;4923;52.520;13.494;2023-07-13T13:37:17;26.00;99.90
9768;DHT22;4923;52.520;13.494;2023-07-13T13:40:14;26.20;99.90
9768;DHT22;4923;52.520;13.494;2023-07-13T13:43:03;26.60;99.90
9768;DHT22;4923;52.520;13.494;2023-07-13T13:45:51;26.60;99.90
9768;DHT22;4923;52.520;13.494;2023-07-13T13:48:39;26.10;99.90
9768;DHT22;4923;52.520;13.494;2023-07-13T13:51:26;26.00;99.90
9768;DHT22;4923;52.520;13.494;2023-07-13T13:54:14;25.90;99.90
9768;DHT22;4923;52.520;13.494;2023-07-13T13:57:02;25.80;99.90
9768;DHT22;4923;52.520;13.494;2023-07-13T13:59:51;26.10;99.90
9768;DHT22;4923;52.520;13.494;2023-07-13T14:02:38;26.40;99.90
9768;DHT22;4923;52.520;13.494;2023-07-13T14:05:25;26.40;99.90
9768;DHT22;4923;52.520;13.494;2023-07-13T14:08:14;26.40;99.90
9768;DHT22;4923;52.520;13.494;2023-07-13T14:11:01;26.50;99.90
9768;DHT22;4923;52.520;13.494;2023-07-13T14:13:49;26.10;99.90
9768;DHT22;4923;52.520;13.494;2023-07-13T14:16:38;26.50;99.90
9768;DHT22;4923;52.520;13.494;2023-07-13T14:19:28;26.30;99.90
9768;DHT22;4923;52.520;13.494;2023-07-13T14:22:15;25.90;99.90
9768;DHT22;4923;52.520;13.494;2023-07-13T14:25:02;25.70;99.90
9768;DHT22;4923;52.520;13.494;2023-07-13T14:27:53;25.60;99.90
9768;DHT22;4923;52.520;13.494;2023-07-13T14:30:41;25.90;99.90
9768;DHT22;4923;52.520;13.494;2023-07-13T14:33:29;26.30;99.90
9768;DHT22;4923;52.520;13.494;2023-07-13T14:36:24;26.60;99.90
9768;DHT22;4923;52.520;13.494;2023-07-13T14:39:14;26.30;99.90
9768;DHT22;4923;52.520;13.494;2023-07-13T14:42:02;26.30;99.90
9768;DHT22;4923;52.520;13.494;2023-07-13T14:44:49;26.50;99.90
9768;DHT22;4923;52.520;13.494;2023-07-13T14:47:36;26.80;99.90
9768;DHT22;4923;52.520;13.494;2023-07-13T14:50:29;25.90;99.90
9768;DHT22;4923;52.520;13.494;2023-07-13T14:53:16;26.10;99.90
9768;DHT22;4923;52.520;13.494;2023-07-13T14:56:09;26.40;99.90
9768;DHT22;4923;52.520;13.494;2023-07-13T14:58:59;26.30;99.90
9768;DHT22;4923;52.520;13.494;2023-07-13T15:01:47;26.20;99.90
9768;DHT22;4923;52.520;13.494;2023-07-13T15:04:35;26.10;99.90
9768;DHT22;4923;52.520;13.494;2023-07-13T15:07:23;26.30;99.90
9768;DHT22;4923;52.520;13.494;2023-07-13T15:10:15;26.30;99.90
9768;DHT22;4923;52.520;13.494;2023-07-13T15:13:14;26.10;99.90
9768;DHT22;4923;52.520;13.494;2023-07-13T15:16:02;26.30;99.90
9768;DHT22;4923;52.520;13.494;2023-07-13T15:18:50;26.30;99.90
9768;DHT22;4923;52.520;13.494;2023-07-13T15:21:37;26.00;99.90
9768;DHT22;4923;52.520;13.494;2023-07-13T15:24:27;26.00;99.90
9768;DHT22;4923;52.520;13.494;2023-07-13T15:27:14;26.20;99.90
9768;DHT22;4923;52.520;13.494;2023-07-13T15:30:01;26.30;99.90
9768;DHT22;4923;52.520;13.494;2023-07-13T15:32:49;26.10;99.90
9768;DHT22;4923;52.520;13.494;2023-07-13T15:35:35;26.00;99.90
9768;DHT22;4923;52.520;13.494;2023-07-13T15:38:25;26.00;99.90
9768;DHT22;4923;52.520;13.494;2023-07-13T15:41:18;25.90;99.90
9768;DHT22;4923;52.520;13.494;2023-07-13T15:44:25;26.00;99.90
9768;DHT22;4923;52.520;13.494;2023-07-13T15:47:14;25.90;99.90
9768;DHT22;4923;52.520;13.494;2023-07-13T15:50:01;26.00;99.90
9768;DHT22;4923;52.520;13.494;2023-07-13T15:52:51;26.00;99.90
9768;DHT22;4923;52.520;13.494;2023-07-13T15:55:39;25.70;99.90
9768;DHT22;4923;52.520;13.494;2023-07-13T15:58:27;25.70;99.90
9768;DHT22;4923;52.520;13.494;2023-07-13T16:01:14;25.90;99.90
9768;DHT22;4923;52.520;13.494;2023-07-13T16:04:01;26.00;99.90
9768;DHT22;4923;52.520;13.494;2023-07-13T16:06:49;26.10;99.90
9768;DHT22;4923;52.520;13.494;2023-07-13T16:09:36;26.20;99.90
9768;DHT22;4923;52.520;13.494;2023-07-13T16:12:23;26.10;99.90
9768;DHT22;4923;52.520;13.494;2023-07-13T16:15:14;26.00;99.90
9768;DHT22;4923;52.520;13.494;2023-07-13T16:18:02;26.00;99.90
9768;DHT22;4923;52.520;13.494;2023-07-13T16:20:49;25.70;99.90
9768;DHT22;4923;52.520;13.494;2023-07-13T16:23:36;25.70;99.90
9768;DHT22;4923;52.520;13.494;2023-07-13T16:26:27;25.40;99.90
9768;DHT22;4923;52.520;13.494;2023-07-13T16:29:20;25.50;99.90
9768;DHT22;4923;52.520;13.494;2023-07-13T16:32:12;25.50;99.90
9768;DHT22;4923;52.520;13.494;2023-07-13T16:34:59;25.50;99.90
9768;DHT22;4923;52.520;13.494;2023-07-13T16:37:46;25.50;99.90
9768;DHT22;4923;52.520;13.494;2023-07-13T16:40:34;25.70;99.90
9768;DHT22;4923;52.520;13.494;2023-07-13T16:43:21;25.60;99.90
9768;DHT22;4923;52.520;13.494;2023-07-13T16:46:10;25.40;99.90
9768;DHT22;4923;52.520;13.494;2023-07-13T16:49:01;25.40;99.90
9768;DHT22;4923;52.520;13.494;2023-07-13T16:51:48;25.30;99.90
9768;DHT22;4923;52.520;13.494;2023-07-13T16:54:36;25.10;99.90
9768;DHT22;4923;52.520;13.494;2023-07-13T16:57:33;24.90;99.90
9768;DHT22;4923;52.520;13.494;2023-07-13T17:00:22;24.80;99.90
9768;DHT22;4923;52.520;13.494;2023-07-13T17:03:13;24.70;99.90
9768;DHT22;4923;52.520;13.494;2023-07-13T17:06:08;24.70;99.90
9768;DHT22;4923;52.520;13.494;2023-07-13T17:08:59;24.70;99.90
9768;DHT22;4923;52.520;13.494;2023-07-13T17:11:52;24.50;99.90
9768;DHT22;4923;52.520;13.494;2023-07-13T17:14:39;24.40;99.90
9768;DHT22;4923;52.520;13.494;2023-07-13T17:17:29;23.70;99.90
9768;DHT22;4923;52.520;13.494;2023-07-13T17:20:20;22.90;99.90
9768;DHT22;4923;52.520;13.494;2023-07-13T17:23:14;21.50;99.90
9768;DHT22;4923;52.520;13.494;2023-07-13T17:26:02;20.70;99.90
9768;DHT22;4923;52.520;13.494;2023-07-13T17:28:49;20.20;99.90
9768;DHT22;4923;52.520;13.494;2023-07-13T17:31:36;19.60;99.90
9768;DHT22;4923;52.520;13.494;2023-07-13T17:34:23;18.80;99.90
9768;DHT22;4923;52.520;13.494;2023-07-13T17:37:11;18.10;99.90
9768;DHT22;4923;52.520;13.494;2023-07-13T17:40:00;17.90;99.90
9768;DHT22;4923;52.520;13.494;2023-07-13T17:42:50;17.90;99.90
9768;DHT22;4923;52.520;13.494;2023-07-13T17:45:39;17.80;99.90
9768;DHT22;4923;52.520;13.494;2023-07-13T17:48:27;17.80;99.90
9768;DHT22;4923;52.520;13.494;2023-07-13T17:51:15;17.80;99.90
9768;DHT22;4923;52.520;13.494;2023-07-13T17:54:04;17.90;99.90
9768;DHT22;4923;52.520;13.494;2023-07-13T17:56:56;17.90;99.90
9768;DHT22;4923;52.520;13.494;2023-07-13T17:59:43;17.90;99.90
9768;DHT22;4923;52.520;13.494;2023-07-13T18:02:30;17.80;99.90